Latest Weather Observations for Holmes Reef

IDQ60801

Issued at 8:03 am EST Saturday 25 June 2016 (issued every 30 minutes, with the page automatically refreshed every 10 minutes)

About weather observations | Map of weather stations | Latest weather observations for QLD | Other Formats
Station Details ID: 200732 Name: HOLMES REEF Lat: -16.47 Lon: 147.87 Height: 1.9 m
Data from the previous 72 hours. | See also: Recent months at Holmes Reef
Date/Time
EST
Temp
°C
App
Temp
°C
Dew
Point
°C
Rel
Hum
%
Delta-T
°C
Wind Press
QNH
hPa
Press
MSL
hPa
Rain since
9am
mm
Dir  Spd
km/h
Gust
km/h
Spd
kts
Gust
kts
25/08:00am 26.0 - - - - SE 30 35 16 19 1014.8 - -
25/07:30am 25.9 - - - - ESE 28 33 15 18 1014.6 - -
25/07:15am 25.8 - - - - ESE 28 - 15 - - 1014.1 -
25/07:00am 25.7 - - - - ESE 28 32 15 17 1014.3 - -
25/06:30am 25.7 - - - - SE 26 28 14 15 1014.2 - -
25/06:15am 25.7 - - - - SE 26 - 14 - - 1013.8 -
25/06:00am 25.7 - - - - ESE 26 30 14 16 1013.9 - -
25/05:30am 25.7 - - - - ESE 28 32 15 17 1013.8 - -
25/05:15am 25.8 - - - - E 26 - 14 - - 1013.4 -
25/05:00am 25.7 - - - - ESE 24 30 13 16 1013.6 - -
25/04:30am 25.7 - - - - E 24 30 13 16 1013.3 - -
25/04:15am 25.6 - - - - E 24 - 13 - - 1013.0 -
25/04:00am 25.6 - - - - E 24 28 13 15 1013.3 - -
25/03:30am 25.8 - - - - E 24 28 13 15 1013.2 - -
25/03:15am 25.7 - - - - E 24 - 13 - - 1012.8 -
25/03:00am 25.7 - - - - E 26 28 14 15 1013.2 - -
25/02:30am 25.9 - - - - ESE 24 28 13 15 1013.3 - -
25/02:15am 25.7 - - - - ESE 22 - 12 - - 1013.0 -
25/02:00am 25.8 - - - - ESE 24 28 13 15 1013.6 - -
25/01:30am 25.8 - - - - E 24 28 13 15 1013.8 - -
25/01:15am 25.9 - - - - E 24 - 13 - - 1013.7 -
25/01:00am 25.9 - - - - E 24 28 13 15 1013.9 - -
25/12:30am 25.9 - - - - E 26 28 14 15 1014.0 - -
25/12:15am 25.9 - - - - E 24 - 13 - - 1013.7 -
25/12:00am 25.9 - - - - E 24 26 13 14 1013.9 - -
 
Date/Time
EST
Temp
°C
App
Temp
°C
Dew
Point
°C
Rel
Hum
%
Delta-T
°C
Wind Press
QNH
hPa
Press
MSL
hPa
Rain since
9am
mm
Dir  Spd
km/h
Gust
km/h
Spd
kts
Gust
kts
24/11:30pm 26.0 - - - - E 24 28 13 15 1014.2 - -
24/11:15pm 25.9 - - - - ESE 22 - 12 - - 1014.1 -
24/11:00pm 26.0 - - - - ESE 22 26 12 14 1014.5 - -
24/10:30pm 26.0 - - - - ESE 22 24 12 13 1014.6 - -
24/10:15pm 26.1 - - - - ESE 22 - 12 - - 1014.4 -
24/10:00pm 26.0 - - - - ESE 22 24 12 13 1014.7 - -
24/09:30pm 26.2 - - - - ESE 24 26 13 14 1014.7 - -
24/09:15pm 26.1 - - - - SE 22 - 12 - - 1014.4 -
24/09:00pm 26.1 - - - - SE 24 28 13 15 1014.7 - -
24/08:30pm 26.1 - - - - SE 20 22 11 12 1014.4 - -
24/08:15pm 26.1 - - - - SE 20 - 11 - - 1014.0 -
24/08:00pm 26.1 - - - - SE 19 22 10 12 1014.1 - -
24/07:30pm 26.1 - - - - SE 20 22 11 12 1013.9 - -
24/07:15pm 26.3 - - - - SE 20 - 11 - - 1013.5 -
24/07:00pm 26.1 - - - - SE 20 22 11 12 1013.6 - -
24/06:30pm 26.2 - - - - ESE 17 20 9 11 1013.3 - -
24/06:15pm 26.1 - - - - ESE 17 - 9 - - 1012.9 -
24/06:00pm 26.2 - - - - ESE 15 17 8 9 1013.1 - -
24/05:30pm 26.3 - - - - ESE 15 17 8 9 1012.8 - -
24/05:15pm 26.4 - - - - ESE 15 - 8 - - 1012.3 -
24/05:00pm 26.4 - - - - ESE 15 17 8 9 1012.6 - -
24/04:30pm 26.5 - - - - ESE 15 19 8 10 1012.6 - -
24/04:15pm 26.5 - - - - ESE 15 - 8 - - 1012.1 -
24/04:00pm 26.6 - - - - ESE 15 17 8 9 1012.4 - -
24/03:30pm 26.6 - - - - ESE 15 17 8 9 1012.5 - -
24/03:15pm 26.7 - - - - SE 17 - 9 - - 1012.1 -
24/03:00pm 26.6 - - - - SE 17 19 9 10 1012.3 - -
24/02:30pm 26.6 - - - - SE 17 20 9 11 1012.5 - -
24/02:15pm 26.5 - - - - ESE 17 - 9 - - 1012.1 -
24/02:00pm 26.5 - - - - ESE 15 17 8 9 1012.4 - -
24/01:30pm 26.4 - - - - E 15 17 8 9 1012.4 - -
24/01:15pm 26.6 - - - - E 15 - 8 - - 1012.3 -
24/01:00pm 26.4 - - - - E 15 19 8 10 1012.8 - -
24/12:30pm 26.6 - - - - ESE 15 17 8 9 1013.6 - -
24/12:15pm 26.6 - - - - ESE 15 - 8 - - 1013.6 -
24/12:00pm 26.6 - - - - ESE 15 17 8 9 1014.0 - -
24/11:30am 26.7 - - - - ESE 15 19 8 10 1014.3 - -
24/11:15am 26.5 - - - - ESE 15 - 8 - - 1014.2 -
24/11:00am 26.7 - - - - ESE 13 15 7 8 1014.6 - -
24/10:30am 26.7 - - - - ESE 13 15 7 8 1014.6 - -
24/10:15am 26.8 - - - - E 13 - 7 - - 1014.3 -
24/10:00am 26.6 - - - - ESE 13 17 7 9 1014.6 - -
24/09:30am 26.7 - - - - ENE 19 20 10 11 1014.5 - -
24/09:15am 26.5 - - - - ENE 20 - 11 - - 1014.2 -
24/09:00am 26.7 - - - - ENE 20 24 11 13 1014.4 - -
24/08:30am 26.5 - - - - E 24 26 13 14 1014.1 - -
24/08:15am 26.5 - - - - ENE 22 - 12 - - 1013.7 -
24/08:00am 26.5 - - - - ENE 22 26 12 14 1013.9 - -
24/07:30am 26.3 - - - - ENE 22 26 12 14 1013.5 - -
24/07:15am 26.2 - - - - E 22 - 12 - - 1013.0 -
24/07:00am 26.0 - - - - E 22 26 12 14 1013.3 - -
24/06:30am 26.1 - - - - E 20 24 11 13 1012.9 - -
24/06:15am 26.0 - - - - E 20 - 11 - - 1012.5 -
24/06:00am 26.0 - - - - E 20 24 11 13 1012.7 - -
24/05:30am 26.0 - - - - E 19 20 10 11 1012.5 - -
24/05:15am 26.0 - - - - E 17 - 9 - - 1012.1 -
24/05:00am 26.1 - - - - E 19 20 10 11 1012.4 - -
24/04:30am 26.1 - - - - E 19 20 10 11 1012.1 - -
24/04:15am 26.1 - - - - E 19 - 10 - - 1011.6 -
24/04:00am 26.0 - - - - E 19 20 10 11 1012.0 - -
24/03:30am 26.2 - - - - E 17 19 9 10 1011.9 - -
24/03:15am 26.2 - - - - E 19 - 10 - - 1011.7 -
24/03:00am 26.2 - - - - E 17 20 9 11 1011.9 - -
24/02:30am 26.3 - - - - E 19 20 10 11 1012.3 - -
24/02:15am 26.4 - - - - E 17 - 9 - - 1012.0 -
24/02:00am 26.4 - - - - E 19 20 10 11 1012.4 - -
24/01:30am 26.4 - - - - E 19 20 10 11 1012.6 - -
24/01:15am 26.5 - - - - E 19 - 10 - - 1012.3 -
24/01:00am 26.5 - - - - E 19 22 10 12 1012.8 - -
24/12:30am 26.5 - - - - E 17 20 9 11 1012.8 - -
24/12:15am 26.7 - - - - E 19 - 10 - - 1012.7 -
24/12:00am 26.7 - - - - E 19 22 10 12 1013.1 - -
 
Date/Time
EST
Temp
°C
App
Temp
°C
Dew
Point
°C
Rel
Hum
%
Delta-T
°C
Wind Press
QNH
hPa
Press
MSL
hPa
Rain since
9am
mm
Dir  Spd
km/h
Gust
km/h
Spd
kts
Gust
kts
23/11:30pm 26.6 - - - - ENE 20 22 11 12 1013.1 - -
23/11:15pm 26.6 - - - - ENE 20 - 11 - - 1012.8 -
23/11:00pm 26.6 - - - - ENE 19 22 10 12 1013.1 - -
23/10:30pm 26.5 - - - - E 19 20 10 11 1013.1 - -
23/10:15pm 26.5 - - - - E 19 - 10 - - 1012.8 -
23/10:00pm 26.5 - - - - E 20 22 11 12 1013.2 - -
23/09:30pm 26.7 - - - - E 22 24 12 13 1013.2 - -
23/09:15pm 26.6 - - - - E 22 - 12 - - 1012.8 -
23/09:00pm 26.6 - - - - E 22 24 12 13 1013.0 - -
23/08:30pm 26.4 - - - - E 19 24 10 13 1012.8 - -
23/08:15pm 26.4 - - - - E 22 - 12 - - 1012.4 -
23/08:00pm 26.4 - - - - E 22 26 12 14 1012.5 - -
23/07:30pm 26.3 - - - - E 22 26 12 14 1012.3 - -
23/07:15pm 26.3 - - - - E 22 - 12 - - 1011.9 -
23/07:00pm 26.2 - - - - E 26 30 14 16 1012.1 - -
23/06:30pm 26.2 - - - - E 22 28 12 15 1011.8 - -
23/06:15pm 25.7 - - - - E 26 - 14 - - 1011.4 -
23/06:00pm 26.2 - - - - ESE 22 28 12 15 1011.6 - -
23/05:30pm 24.8 - - - - E 30 35 16 19 1011.5 - -
23/05:15pm 25.4 - - - - ESE 24 - 13 - - 1011.1 -
23/05:00pm 25.7 - - - - ESE 22 28 12 15 1011.3 - -
23/04:30pm 25.1 - - - - SE 22 26 12 14 1011.2 - -
23/04:15pm 25.0 - - - - SE 28 - 15 - - 1010.8 -
23/04:00pm 25.1 - - - - SSE 26 30 14 16 1010.9 - -
23/03:30pm 25.4 - - - - SSE 28 33 15 18 1010.9 - -
23/03:15pm 25.8 - - - - SSE 28 - 15 - - 1010.5 -
23/03:00pm 26.0 - - - - SSE 28 32 15 17 1010.8 - -
23/02:30pm 26.3 - - - - SSE 20 24 11 13 1010.9 - -
23/02:15pm 26.3 - - - - SSE 24 - 13 - - 1010.9 -
23/02:00pm 26.8 - - - - SSE 22 24 12 13 1011.2 - -
23/01:30pm 26.8 - - - - SE 20 22 11 12 1011.6 - -
23/01:15pm 26.7 - - - - SE 20 - 11 - - 1011.5 -
23/01:00pm 26.8 - - - - SE 20 24 11 13 1011.8 - -
23/12:30pm 26.6 - - - - ESE 22 24 12 13 1012.2 - -
23/12:15pm 26.6 - - - - ESE 22 - 12 - - 1012.1 -
23/12:00pm 26.7 - - - - ESE 22 26 12 14 1012.6 - -
23/11:30am 26.9 - - - - ESE 26 30 14 16 1012.8 - -
23/11:15am 26.9 - - - - E 24 - 13 - - 1012.6 -
23/11:00am 26.7 - - - - E 26 30 14 16 1012.9 - -
23/10:30am 26.7 - - - - E 24 28 13 15 1013.1 - -
23/10:15am 26.6 - - - - E 26 - 14 - - 1012.9 -
23/10:00am 26.5 - - - - E 26 30 14 16 1013.3 - -
23/09:30am 26.6 - - - - ESE 26 30 14 16 1013.4 - -
23/09:15am 26.6 - - - - ESE 28 - 15 - - 1013.1 -
23/09:00am 26.6 - - - - ESE 28 32 15 17 1013.4 - -
23/08:30am 26.5 - - - - ESE 26 30 14 16 1013.2 - -
23/08:15am 26.5 - - - - ESE 26 - 14 - - 1012.8 -
23/08:00am 26.4 - - - - E 26 28 14 15 1013.0 - -
23/07:30am 26.4 - - - - ESE 24 28 13 15 1012.6 - -
23/07:15am 26.4 - - - - ESE 24 - 13 - - 1012.1 -
23/07:00am 26.3 - - - - ESE 24 26 13 14 1012.4 - -
23/06:30am 26.4 - - - - ESE 26 30 14 16 1012.1 - -
23/06:15am 26.4 - - - - SE 28 - 15 - - 1011.7 -
23/06:00am 26.5 - - - - SE 28 30 15 16 1011.9 - -
23/05:30am 26.4 - - - - ESE 24 26 13 14 1011.9 - -
23/05:15am 26.1 - - - - ESE 26 - 14 - - 1011.5 -
23/05:00am 26.1 - - - - E 26 28 14 15 1011.8 - -
23/04:30am 26.1 - - - - E 22 26 12 14 1011.7 - -
23/04:15am 26.0 - - - - E 22 - 12 - - 1011.4 -
23/04:00am 26.0 - - - - ENE 24 28 13 15 1011.7 - -
23/03:30am 25.9 - - - - E 26 32 14 17 1011.9 - -
23/03:15am 25.9 - - - - ENE 26 - 14 - - 1011.7 -
23/03:00am 26.0 - - - - E 28 30 15 16 1012.1 - -
23/02:30am 26.0 - - - - E 26 30 14 16 1012.2 - -
23/02:15am 26.1 - - - - E 28 - 15 - - 1011.9 -
23/02:00am 26.4 - - - - E 28 32 15 17 1012.2 - -
23/01:30am 26.2 - - - - ESE 24 28 13 15 1012.3 - -
23/01:15am 26.1 - - - - ESE 26 - 14 - - 1012.2 -
23/01:00am 26.2 - - - - SE 24 26 13 14 1012.7 - -
23/12:30am 26.1 - - - - SE 26 30 14 16 1013.0 - -
23/12:15am 26.1 - - - - ESE 26 - 14 - - 1012.7 -
23/12:00am 26.1 - - - - ESE 28 32 15 17 1013.0 - -
 
Date/Time
EST
Temp
°C
App
Temp
°C
Dew
Point
°C
Rel
Hum
%
Delta-T
°C
Wind Press
QNH
hPa
Press
MSL
hPa
Rain since
9am
mm
Dir  Spd
km/h
Gust
km/h
Spd
kts
Gust
kts
22/11:30pm 26.2 - - - - SE 28 32 15 17 1013.2 - -
22/11:15pm 26.3 - - - - SE 28 - 15 - - 1012.9 -
22/11:00pm 26.2 - - - - SE 28 32 15 17 1013.2 - -
22/10:30pm 26.3 - - - - SE 28 32 15 17 1013.4 - -
22/10:15pm 26.2 - - - - SE 28 - 15 - - 1013.2 -
22/10:00pm 26.3 - - - - SE 26 30 14 16 1013.6 - -
22/09:30pm 26.1 - - - - SE 28 32 15 17 1013.5 - -
22/09:15pm 26.1 - - - - SE 28 - 15 - - 1013.1 -
22/09:00pm 25.5 - - - - SSE 26 30 14 16 1013.4 - -
22/08:30pm 24.8 - - - - SE 32 35 17 19 1013.3 - -
22/08:15pm 25.0 - - - - ESE 32 - 17 - - 1012.9 -
22/08:00pm 25.8 - - - - ESE 28 32 15 17 1013.0 - -
22/07:30pm 25.8 - - - - SE 30 33 16 18 1012.6 - -
22/07:15pm 26.1 - - - - SE 28 - 15 - - 1012.3 -
22/07:00pm 26.3 - - - - SE 26 30 14 16 1012.5 - -
22/06:30pm 26.1 - - - - SSE 28 32 15 17 1012.2 - -
22/06:15pm 26.2 - - - - SSE 28 - 15 - - 1011.8 -
22/06:00pm 26.3 - - - - SSE 28 30 15 16 1012.1 - -
22/05:30pm 26.2 - - - - SE 26 30 14 16 1011.7 - -
22/05:15pm 26.2 - - - - SE 26 - 14 - - 1011.3 -
22/05:00pm 26.1 - - - - SE 26 30 14 16 1011.5 - -
22/04:30pm 26.2 - - - - SE 24 26 13 14 1011.3 - -
22/04:15pm 26.1 - - - - SE 24 - 13 - - 1010.9 -
22/04:00pm 26.2 - - - - SE 24 28 13 15 1011.1 - -
22/03:30pm 26.3 - - - - SE 24 28 13 15 1010.9 - -
22/03:15pm 26.3 - - - - SE 20 - 11 - - 1010.5 -
22/03:00pm 26.3 - - - - SE 20 24 11 13 1010.8 - -
22/02:30pm 26.5 - - - - SE 20 22 11 12 1011.1 - -
22/02:15pm 26.4 - - - - SE 19 - 10 - - 1010.9 -
22/02:00pm 26.3 - - - - ESE 20 22 11 12 1011.3 - -
22/01:30pm 26.1 - - - - ESE 22 26 12 14 1011.6 - -
22/01:15pm 26.3 - - - - ESE 22 - 12 - - 1011.5 -
22/01:00pm 26.3 - - - - ESE 22 26 12 14 1012.2 - -
22/12:30pm 26.3 - - - - ESE 24 28 13 15 1012.7 - -
22/12:15pm 26.3 - - - - SE 26 - 14 - - 1012.6 -
22/12:00pm 26.3 - - - - SE 26 30 14 16 1013.0 - -
22/11:30am 26.3 - - - - SE 26 30 14 16 1013.3 - -
22/11:15am 26.1 - - - - SE 26 - 14 - - 1013.1 -
22/11:00am 26.2 - - - - ESE 26 30 14 16 1013.6 - -
22/10:30am 26.3 - - - - SE 28 30 15 16 1013.9 - -
22/10:15am 26.1 - - - - SE 26 - 14 - - 1013.6 -
22/10:00am 26.2 - - - - SE 26 30 14 16 1014.0 - -
22/09:30am 26.1 - - - - SE 24 30 13 16 1014.1 - -
22/09:15am 26.2 - - - - SE 26 - 14 - - 1013.9 -
22/09:00am 26.0 - - - - SE 26 30 14 16 1014.1 - -
22/08:30am 26.1 - - - - SE 26 28 14 15 1014.0 - -
22/08:15am 25.9 - - - - SE 26 - 14 - - 1013.6 -

Other Formats:

Comma delimited format used in spreadsheet applications
http://www.bom.gov.au/fwo/IDQ60801/IDQ60801.94289.axf

JavaScript Object Notation format (JSON) in row-major order
http://www.bom.gov.au/fwo/IDQ60801/IDQ60801.94289.json